Time;durP1;ratioP1;P1;durP2;ratioP2;P2;SDS_P1;SDS_P2;PMS_P1;PMS_P2;Temp;Humidity;BMP_temperature;BMP_pressure;BME280_temperature;BME280_humidity;BME280_pressure;Samples;Min_cycle;Max_cycle;Signal;HPM_P1;HPM_P2
2021/12/02 00:03:58;;;;;;;13.65;2.88;;;;;;;3.70;100.00;100565.25;10540637;28;20052;-54
2021/12/02 00:09:01;;;;;;;20.10;2.78;;;;;;;3.76;100.00;100574.53;10541209;28;20048;-56
2021/12/02 00:14:09;;;;;;;10.48;2.35;;;;;;;3.77;100.00;100571.06;10540396;28;20074;-54
2021/12/02 00:24:38;;;;;;;11.38;1.60;;;;;;;3.77;100.00;100571.91;10540169;28;20052;-53
2021/12/02 00:29:42;;;;;;;8.15;1.38;;;;;;;3.80;100.00;100576.13;10522199;28;20048;-53
2021/12/02 00:34:45;;;;;;;3.67;1.13;;;;;;;3.67;100.00;100566.16;10540059;28;20044;-54
2021/12/02 00:39:48;;;;;;;7.68;1.48;;;;;;;3.75;100.00;100571.13;10540185;28;20044;-55
2021/12/02 00:44:50;;;;;;;10.38;2.50;;;;;;;3.65;100.00;100577.50;10539909;28;20052;-55
2021/12/02 00:49:53;;;;;;;6.78;1.88;;;;;;;3.66;100.00;100582.59;10521815;28;20063;-54
2021/12/02 00:54:56;;;;;;;8.18;2.03;;;;;;;3.65;100.00;100578.31;10548323;28;20040;-54
2021/12/02 01:00:02;;;;;;;3.20;0.80;;;;;;;3.59;100.00;100575.09;10548396;28;20163;-53
2021/12/02 01:05:05;;;;;;;5.65;1.20;;;;;;;3.81;100.00;100603.72;10530394;28;20078;-53
2021/12/02 01:10:09;;;;;;;5.07;1.30;;;;;;;3.77;100.00;100604.72;10547940;28;20385;-57
2021/12/02 01:15:11;;;;;;;6.43;0.75;;;;;;;3.59;100.00;100590.63;10547427;28;20052;-51
2021/12/02 01:20:14;;;;;;;7.63;1.00;;;;;;;3.47;100.00;100584.94;10547358;28;20502;-56
2021/12/02 01:25:19;;;;;;;1.00;0.80;;;;;;;3.34;100.00;100588.78;10547302;28;20044;-57
2021/12/02 01:30:21;;;;;;;2.22;0.70;;;;;;;3.31;100.00;100596.63;10546701;28;20396;-53
2021/12/02 01:35:24;;;;;;;2.85;0.45;;;;;;;3.16;100.00;100591.06;10528814;28;20052;-57
2021/12/02 01:40:27;;;;;;;3.90;0.70;;;;;;;3.07;100.00;100593.06;10528670;28;20048;-57
2021/12/02 01:45:32;;;;;;;9.18;1.02;;;;;;;2.90;100.00;100596.13;10546452;28;20438;-56
2021/12/02 01:50:35;;;;;;;4.93;1.25;;;;;;;2.72;100.00;100587.16;10546794;28;20040;-55
2021/12/02 01:55:43;;;;;;;4.32;1.42;;;;;;;2.76;100.00;100591.38;10528682;28;20060;-56
2021/12/02 02:00:46;;;;;;;4.07;1.13;;;;;;;2.82;100.00;100592.91;10545714;28;20052;-57
2021/12/02 02:05:51;;;;;;;11.60;1.05;;;;;;;2.90;100.00;100614.25;10502005;28;20136;-52
2021/12/02 02:10:54;;;;;;;8.05;1.58;;;;;;;2.90;100.00;100710.75;10502395;28;20051;-57
2021/12/02 02:15:56;;;;;;;4.80;0.80;;;;;;;2.93;100.00;100673.63;10503137;28;20511;-56
2021/12/02 02:21:03;;;;;;;6.18;1.58;;;;;;;2.93;100.00;100658.13;10503330;28;20056;-56
2021/12/02 02:26:08;;;;;;;3.78;1.20;;;;;;;2.70;100.00;100657.00;10503101;28;20053;-57
2021/12/02 02:31:10;;;;;;;2.72;1.15;;;;;;;2.69;100.00;100639.81;10502951;28;20044;-57
2021/12/02 02:36:13;;;;;;;3.97;0.70;;;;;;;2.64;100.00;100627.88;10502631;28;20098;-58
2021/12/02 02:41:20;;;;;;;5.68;0.98;;;;;;;2.69;100.00;100638.94;10502653;28;20044;-55
2021/12/02 02:46:32;;;;;;;5.25;1.17;;;;;;;2.67;100.00;100643.31;10501234;28;20049;-57
2021/12/02 02:51:36;;;;;;;5.50;1.05;;;;;;;2.75;100.00;100638.78;10502141;28;20455;-56
2021/12/02 02:57:04;;;;;;;3.58;1.13;;;;;;;2.79;100.00;100645.56;10501586;28;20052;-56
2021/12/02 03:07:22;;;;;;;7.43;1.13;;;;;;;2.84;100.00;100671.28;10538797;28;20488;-53
2021/12/02 03:12:37;;;;;;;2.55;0.93;;;;;;;2.87;100.00;100663.47;10543185;28;20074;-58
2021/12/02 03:17:40;;;;;;;7.22;0.95;;;;;;;2.96;100.00;100665.81;10526263;28;20044;-58
2021/12/02 03:22:43;;;;;;;3.85;0.65;;;;;;;2.85;100.00;100665.25;10542273;28;20044;-54
2021/12/02 03:27:45;;;;;;;6.13;1.05;;;;;;;2.81;100.00;100663.63;10542500;28;20047;-54
2021/12/02 03:32:48;;;;;;;1.73;0.82;;;;;;;2.89;100.00;100666.84;10541774;28;20507;-57
2021/12/02 03:37:50;;;;;;;3.58;1.05;;;;;;;2.74;100.00;100662.94;10541879;28;20488;-56
2021/12/02 03:42:53;;;;;;;2.50;0.90;;;;;;;2.80;100.00;100667.94;10541598;28;20044;-57
2021/12/02 03:48:11;;;;;;;1.23;0.80;;;;;;;2.78;100.00;100659.38;10542634;28;20052;-58
2021/12/02 03:53:13;;;;;;;4.38;1.08;;;;;;;2.62;100.00;100647.75;10523576;28;20047;-57
2021/12/02 03:58:16;;;;;;;4.65;0.88;;;;;;;2.58;100.00;100637.50;10541612;28;20093;-55
2021/12/02 04:03:18;;;;;;;4.30;0.95;;;;;;;2.84;100.00;100660.94;10540739;28;20417;-57
2021/12/02 04:08:29;;;;;;;3.60;1.23;;;;;;;3.03;100.00;100674.25;10540985;28;20109;-57
2021/12/02 04:13:34;;;;;;;3.78;0.80;;;;;;;3.13;100.00;100683.44;10540511;28;20048;-55
2021/12/02 04:18:36;;;;;;;5.95;1.00;;;;;;;2.70;100.00;100659.59;10540851;28;20048;-55
2021/12/02 04:23:39;;;;;;;8.38;1.23;;;;;;;2.84;100.00;100672.16;10540260;28;20043;-53
2021/12/02 04:28:41;;;;;;;4.53;1.00;;;;;;;2.48;100.00;100645.56;10539809;28;20047;-56
2021/12/02 04:33:44;;;;;;;2.67;1.20;;;;;;;2.38;100.00;100638.03;10539989;28;20050;-52
2021/12/02 04:38:46;;;;;;;2.03;1.17;;;;;;;2.32;100.00;100630.44;10540020;28;20044;-56
2021/12/02 04:43:48;;;;;;;5.60;1.33;;;;;;;2.48;100.00;100655.88;10539748;28;20433;-56
2021/12/02 04:48:51;;;;;;;5.03;1.60;;;;;;;2.49;100.00;100660.16;10540268;28;20138;-55
2021/12/02 04:53:53;;;;;;;8.65;1.58;;;;;;;2.37;100.00;100636.34;10539535;28;20055;-55
2021/12/02 04:58:55;;;;;;;8.63;2.25;;;;;;;2.36;100.00;100634.63;10539869;28;20051;-56
2021/12/02 05:03:58;;;;;;;6.07;2.13;;;;;;;2.31;100.00;100633.91;10539206;28;20466;-55
2021/12/02 05:09:00;;;;;;;4.80;2.75;;;;;;;2.23;100.00;100638.41;10539212;28;20055;-55
2021/12/02 05:14:03;;;;;;;7.50;2.85;;;;;;;2.36;100.00;100651.88;10539171;28;20131;-57
2021/12/02 05:19:05;;;;;;;7.75;2.95;;;;;;;2.25;100.00;100646.13;10539209;28;20399;-57
2021/12/02 05:24:08;;;;;;;8.82;3.25;;;;;;;2.42;100.00;100642.25;10539219;28;20048;-55
2021/12/02 05:29:10;;;;;;;11.35;2.35;;;;;;;2.33;100.00;100649.38;10538970;28;20521;-53
2021/12/02 05:34:12;;;;;;;8.38;1.75;;;;;;;2.25;100.00;100649.56;10539066;28;20046;-57
2021/12/02 05:39:15;;;;;;;3.47;1.67;;;;;;;2.25;100.00;100682.31;10543370;28;20055;-54
2021/12/02 05:44:17;;;;;;;4.97;1.50;;;;;;;2.39;100.00;100708.66;10546397;28;20048;-55
2021/12/02 05:49:19;;;;;;;5.88;1.40;;;;;;;2.30;100.00;100707.13;10546385;28;20060;-55
2021/12/02 05:54:22;;;;;;;4.05;1.40;;;;;;;2.20;100.00;100693.63;10528427;28;20044;-55
2021/12/02 05:59:25;;;;;;;1.85;0.70;;;;;;;2.42;100.00;100717.19;10546127;28;20059;-58
2021/12/02 06:04:27;;;;;;;4.15;1.00;;;;;;;2.21;100.00;100702.19;10545449;28;20498;-53
2021/12/02 06:09:29;;;;;;;10.35;0.65;;;;;;;2.00;100.00;100691.50;10545869;28;20059;-54
2021/12/02 06:14:31;;;;;;;4.25;0.63;;;;;;;1.95;100.00;100697.63;10527686;28;20063;-53
2021/12/02 06:19:34;;;;;;;3.10;0.75;;;;;;;1.91;100.00;100707.19;10545229;28;20056;-56
2021/12/02 06:30:06;;;;;;;3.90;0.50;;;;;;;1.84;100.00;100714.22;10528606;28;20423;-56
2021/12/02 06:35:09;;;;;;;1.55;0.52;;;;;;;2.02;100.00;100743.97;10544735;28;20040;-58
2021/12/02 06:40:11;;;;;;;1.45;1.42;;;;;;;1.70;100.00;100724.03;10544070;28;20475;-54
2021/12/02 06:45:14;;;;;;;2.63;1.42;;;;;;;1.55;100.00;100712.31;10544535;28;20044;-57
2021/12/02 06:50:20;;;;;;;2.63;1.40;;;;;;;1.50;100.00;100714.13;10543455;28;20055;-55
2021/12/02 06:55:23;;;;;;;4.68;1.60;;;;;;;1.48;100.00;100731.38;10544207;28;20051;-53
2021/12/02 07:00:26;;;;;;;2.88;1.55;;;;;;;1.17;100.00;100705.34;10543487;28;20044;-55
2021/12/02 07:05:32;;;;;;;5.93;1.45;;;;;;;1.22;100.00;100717.25;10544299;28;20131;-54
2021/12/02 07:10:35;;;;;;;1.95;1.65;;;;;;;1.28;100.00;100719.72;10543262;28;20052;-53
2021/12/02 07:15:51;;;;;;;4.68;1.60;;;;;;;1.07;100.00;100712.41;10542792;28;20484;-56
2021/12/02 07:20:53;;;;;;;7.72;2.20;;;;;;;0.93;100.00;100713.53;10542505;28;20051;-53
2021/12/02 07:25:58;;;;;;;2.45;2.15;;;;;;;0.92;100.00;100729.91;10542844;28;20044;-55
2021/12/02 07:31:03;;;;;;;3.60;2.40;;;;;;;0.78;100.00;100741.31;10542947;28;20070;-54
2021/12/02 07:36:06;;;;;;;4.05;3.22;;;;;;;0.91;100.00;100758.28;10524366;28;20040;-54
2021/12/02 07:41:08;;;;;;;4.45;2.88;;;;;;;0.90;100.00;100777.19;10541629;28;20400;-53
2021/12/02 07:46:10;;;;;;;4.95;3.58;;;;;;;0.93;100.00;100790.88;10541721;28;20518;-56
2021/12/02 07:51:17;;;;;;;3.45;2.55;;;;;;;1.31;100.00;100796.19;10542144;28;20044;-58
2021/12/02 07:56:22;;;;;;;6.45;3.63;;;;;;;1.24;100.00;100792.03;10541267;28;20055;-55
2021/12/02 08:01:24;;;;;;;6.80;4.20;;;;;;;1.28;100.00;100804.00;10540602;28;20055;-55
2021/12/02 08:06:28;;;;;;;7.90;4.60;;;;;;;1.36;100.00;100802.16;10541360;28;20051;-55
2021/12/02 08:11:32;;;;;;;9.63;4.65;;;;;;;1.59;100.00;100808.56;10540687;28;20400;-57
2021/12/02 08:16:34;;;;;;;8.75;4.63;;;;;;;1.58;100.00;100823.22;10540990;28;20131;-54
2021/12/02 08:21:37;;;;;;;8.55;4.60;;;;;;;1.59;100.00;100819.72;10540325;28;20122;-56
2021/12/02 08:26:40;;;;;;;12.70;6.20;;;;;;;1.95;100.00;100843.13;10540486;28;20047;-55
2021/12/02 08:31:42;;;;;;;9.43;5.00;;;;;;;2.26;100.00;100857.09;10540318;28;20056;-57
2021/12/02 08:36:54;;;;;;;11.23;4.25;;;;;;;2.12;100.00;100847.06;10540108;28;20122;-53
2021/12/02 08:41:57;;;;;;;7.70;4.40;;;;;;;2.11;100.00;100853.97;10540398;28;20048;-58
2021/12/02 08:46:59;;;;;;;7.25;4.07;;;;;;;2.22;100.00;100864.91;10539794;28;20109;-56
2021/12/02 08:52:02;;;;;;;8.10;4.57;;;;;;;2.15;100.00;100871.09;10539421;28;20538;-57
2021/12/02 08:57:04;;;;;;;6.50;4.43;;;;;;;2.14;100.00;100871.13;10539585;28;20051;-54
2021/12/02 09:02:07;;;;;;;9.07;3.72;;;;;;;2.08;100.00;100887.59;10539525;28;20050;-55
2021/12/02 09:07:09;;;;;;;7.15;4.63;;;;;;;2.78;100.00;100920.53;10539352;28;20059;-55
2021/12/02 09:12:12;;;;;;;5.85;2.95;;;;;;;4.07;100.00;100974.22;10541742;28;20055;-57
2021/12/02 09:17:14;;;;;;;2.92;2.33;;;;;;;3.91;100.00;100939.28;10547908;28;20496;-53
2021/12/02 09:22:17;;;;;;;4.07;2.10;;;;;;;4.70;100.00;100968.13;10547347;28;20066;-55
2021/12/02 09:27:19;;;;;;;1.92;1.25;;;;;;;6.59;98.79;101034.59;10547193;28;20048;-57
2021/12/02 09:32:22;;;;;;;2.60;1.55;;;;;;;6.49;91.20;100983.81;10546984;28;20500;-56
2021/12/02 09:37:24;;;;;;;1.92;1.05;;;;;;;4.49;100.00;100948.88;10547206;28;20048;-55
2021/12/02 09:42:27;;;;;;;1.98;1.15;;;;;;;3.48;100.00;100930.91;10546810;28;20059;-55
2021/12/02 09:47:31;;;;;;;4.40;1.48;;;;;;;3.79;100.00;100942.19;10546488;28;20541;-56
2021/12/02 09:52:40;;;;;;;1.08;0.90;;;;;;;3.51;100.00;100938.59;10546142;28;20044;-56
2021/12/02 09:57:46;;;;;;;4.15;1.10;;;;;;;3.53;100.00;100938.53;10546033;28;20473;-54
2021/12/02 10:02:54;;;;;;;2.15;1.52;;;;;;;3.57;100.00;100928.97;10545581;28;20063;-55
2021/12/02 10:08:01;;;;;;;4.20;1.10;;;;;;;3.59;100.00;100924.59;10545674;28;20055;-56
2021/12/02 10:13:19;;;;;;;4.80;1.65;;;;;;;3.36;100.00;100926.03;10545765;28;20055;-53
2021/12/02 10:18:26;;;;;;;3.42;1.52;;;;;;;3.46;100.00;100947.34;10545316;28;20048;-55
2021/12/02 10:23:38;;;;;;;0.85;0.85;;;;;;;3.89;100.00;100962.63;10526483;28;20480;-55
2021/12/02 10:28:43;;;;;;;2.20;1.20;;;;;;;4.30;100.00;100977.91;10544798;28;20048;-56
2021/12/02 10:34:03;;;;;;;0.93;0.70;;;;;;;4.20;100.00;100964.38;10545029;28;20064;-54
2021/12/02 10:39:11;;;;;;;1.08;1.00;;;;;;;3.93;100.00;100958.19;10544536;28;20059;-56
2021/12/02 10:44:24;;;;;;;3.90;1.25;;;;;;;4.16;100.00;100969.69;10544314;28;20055;-56
2021/12/02 10:49:30;;;;;;;11.55;1.23;;;;;;;4.47;100.00;101000.75;10544299;28;20044;-58
2021/12/02 10:54:34;;;;;;;1.58;0.80;;;;;;;3.98;100.00;100978.81;10544236;28;20040;-55
2021/12/02 10:59:43;;;;;;;5.55;0.95;;;;;;;3.55;100.00;100954.91;10543783;28;20048;-54
2021/12/02 11:04:48;;;;;;;1.00;1.00;;;;;;;3.54;100.00;100977.34;10543636;28;20067;-55
2021/12/02 11:09:52;;;;;;;3.60;1.00;;;;;;;3.76;100.00;100975.94;10543542;28;20048;-57
2021/12/02 11:15:18;;;;;;;1.98;0.90;;;;;;;3.61;100.00;100965.09;10542814;28;20051;-53
2021/12/02 11:20:23;;;;;;;3.63;1.30;;;;;;;4.20;100.00;100966.09;10542696;28;20051;-53
2021/12/02 11:25:26;;;;;;;2.22;1.02;;;;;;;4.32;100.00;100970.09;10542736;28;20062;-52
2021/12/02 11:30:30;;;;;;;4.95;1.40;;;;;;;4.75;100.00;100995.63;10542495;28;20044;-55
2021/12/02 11:35:38;;;;;;;3.28;0.90;;;;;;;5.40;100.00;101036.00;10541869;28;20080;-56
2021/12/02 11:40:43;;;;;;;2.47;1.02;;;;;;;4.84;100.00;101010.91;10541931;28;20097;-55
2021/12/02 11:45:48;;;;;;;1.15;1.00;;;;;;;4.46;100.00;101012.03;10541862;28;20040;-53
2021/12/02 11:50:52;;;;;;;5.15;1.13;;;;;;;4.68;100.00;101022.66;10541933;28;20052;-56
2021/12/02 11:55:59;;;;;;;2.78;0.90;;;;;;;4.57;100.00;101020.38;10541577;28;20044;-56
2021/12/02 12:01:01;;;;;;;1.67;1.00;;;;;;;4.87;100.00;101035.06;10524058;28;20047;-53
2021/12/02 12:06:10;;;;;;;1.95;1.00;;;;;;;4.76;100.00;101033.66;10522560;28;20058;-51
2021/12/02 12:11:29;;;;;;;4.90;0.85;;;;;;;4.64;100.00;101021.03;10541013;28;20075;-53
2021/12/02 12:16:43;;;;;;;2.33;1.15;;;;;;;4.61;100.00;101034.94;10541205;28;20050;-51
2021/12/02 12:21:53;;;;;;;2.28;1.30;;;;;;;4.65;100.00;101054.69;10540367;28;20632;-54
2021/12/02 12:27:11;;;;;;;1.30;1.20;;;;;;;4.97;100.00;101065.88;10540339;28;20506;-54
2021/12/02 12:32:32;;;;;;;2.65;1.67;;;;;;;4.54;100.00;101064.53;10540757;28;20051;-53
2021/12/02 12:43:08;;;;;;;1.30;1.08;;;;;;;4.25;100.00;101070.50;10540236;28;20282;-53
2021/12/02 12:48:18;;;;;;;3.70;1.15;;;;;;;4.62;100.00;101087.66;10526621;28;20059;-54
2021/12/02 12:53:30;;;;;;;0.73;0.47;;;;;;;4.35;100.00;101076.28;10540052;28;20052;-55
2021/12/02 12:58:56;;;;;;;0.60;0.45;;;;;;;4.65;100.00;101088.41;10539697;28;20044;-53
2021/12/02 13:04:08;;;;;;;2.97;1.23;;;;;;;4.52;100.00;101083.63;10539328;28;20381;-57
2021/12/02 13:09:11;;;;;;;2.58;0.68;;;;;;;3.91;100.00;101053.25;10539323;28;20056;-54
2021/12/02 13:14:14;;;;;;;2.15;0.90;;;;;;;3.78;100.00;101060.47;10539327;28;20072;-55
2021/12/02 13:19:17;;;;;;;0.93;0.65;;;;;;;3.66;100.00;101061.63;10539031;28;20484;-52
2021/12/02 13:24:19;;;;;;;3.78;1.08;;;;;;;3.46;100.00;101069.03;10539430;28;20123;-55
2021/12/02 13:29:26;;;;;;;5.03;1.52;;;;;;;3.62;100.00;101083.31;10539232;28;20060;-53
2021/12/02 13:34:29;;;;;;;1.63;0.70;;;;;;;3.54;100.00;101100.75;10539044;28;20071;-54
2021/12/02 13:39:34;;;;;;;0.65;0.65;;;;;;;4.28;100.00;101143.84;10538994;28;20044;-53
2021/12/02 13:44:46;;;;;;;0.70;0.70;;;;;;;3.53;100.00;101131.00;10538815;28;20048;-55
2021/12/02 13:49:50;;;;;;;;;;;;;;;3.40;100.00;101134.75;10539753;28;20044;-51
2021/12/02 13:55:06;;;;;;;0.98;0.90;;;;;;;3.24;100.00;101147.16;10538527;28;19961;-51
2021/12/02 14:00:25;;;;;;;1.52;0.90;;;;;;;3.46;100.00;101159.63;10541150;28;20403;-54
2021/12/02 14:05:48;;;;;;;1.80;0.80;;;;;;;3.51;100.00;101169.00;10545407;28;20048;-55
2021/12/02 14:10:51;;;;;;;3.47;1.55;;;;;;;3.13;100.00;101149.13;10545137;28;20063;-52
2021/12/02 14:16:00;;;;;;;2.67;1.10;;;;;;;3.16;100.00;101180.09;10527715;28;20044;-53
2021/12/02 14:21:05;;;;;;;1.70;1.60;;;;;;;3.29;100.00;101191.91;10544916;28;20523;-51
2021/12/02 14:26:11;;;;;;;4.82;1.27;;;;;;;3.47;100.00;101207.94;10544938;28;20050;-52
2021/12/02 14:31:30;;;;;;;1.85;1.45;;;;;;;3.35;100.00;101209.91;10545354;28;20048;-57
2021/12/02 14:36:48;;;;;;;5.28;1.70;;;;;;;3.15;100.00;101204.28;10544504;28;20048;-52
2021/12/02 14:41:57;;;;;;;5.82;1.85;;;;;;;3.21;100.00;101222.28;10544113;28;20408;-51
2021/12/02 14:47:00;;;;;;;2.45;2.22;;;;;;;2.97;100.00;101216.66;10526191;28;20055;-55
2021/12/02 14:52:18;;;;;;;5.30;1.35;;;;;;;2.96;100.00;101229.66;10543987;28;20050;-54
2021/12/02 14:57:24;;;;;;;6.68;2.10;;;;;;;2.73;100.00;101230.09;10544143;28;20070;-55
2021/12/02 15:02:28;;;;;;;2.20;1.27;;;;;;;2.58;100.00;101249.28;10525617;28;20059;-53
2021/12/02 15:07:32;;;;;;;4.95;2.10;;;;;;;2.65;100.00;101248.31;10543950;28;20078;-52
2021/12/02 15:12:36;;;;;;;4.13;2.40;;;;;;;2.54;100.00;101245.91;10525157;28;20055;-52
2021/12/02 15:17:43;;;;;;;9.00;2.60;;;;;;;2.45;100.00;101263.28;10542590;28;20048;-53
2021/12/02 15:22:53;;;;;;;4.35;2.90;;;;;;;2.44;100.00;101280.53;10524923;28;20407;-53
2021/12/02 15:28:15;;;;;;;5.00;2.90;;;;;;;2.40;100.00;101287.50;10524485;28;20514;-54
2021/12/02 15:33:22;;;;;;;6.57;2.60;;;;;;;2.15;100.00;101289.59;10542413;28;20044;-56
2021/12/02 15:38:25;;;;;;;9.18;3.08;;;;;;;2.02;100.00;101306.16;10542568;28;20040;-54
2021/12/02 15:43:58;;;;;;;4.25;2.63;;;;;;;1.99;100.00;101304.44;10542060;28;20123;-55
2021/12/02 15:49:02;;;;;;;3.38;2.80;;;;;;;1.94;100.00;101311.41;10541889;28;20048;-55
2021/12/02 15:54:07;;;;;;;7.40;2.72;;;;;;;1.82;100.00;101325.31;10541411;28;20044;-51
2021/12/02 15:59:10;;;;;;;6.60;2.28;;;;;;;1.89;100.00;101333.00;10541251;28;20476;-56
2021/12/02 16:04:23;;;;;;;9.27;3.40;;;;;;;1.41;100.00;101344.75;10541132;28;20487;-55
2021/12/02 16:14:47;;;;;;;4.38;2.55;;;;;;;1.79;100.00;101365.81;10540641;28;20070;-53
2021/12/02 16:19:49;;;;;;;6.45;4.80;;;;;;;1.48;100.00;101345.53;10540483;28;20443;-55
2021/12/02 16:24:54;;;;;;;4.03;3.15;;;;;;;1.41;100.00;101367.09;10539806;28;20051;-56
2021/12/02 16:29:57;;;;;;;12.27;3.17;;;;;;;1.23;100.00;101363.84;10540905;28;20052;-56
2021/12/02 16:34:59;;;;;;;9.23;3.58;;;;;;;1.33;100.00;101381.78;10540173;28;20403;-53
2021/12/02 16:40:16;;;;;;;8.60;3.42;;;;;;;1.30;100.00;101382.69;10539875;28;20484;-54
2021/12/02 16:45:24;;;;;;;6.80;3.38;;;;;;;1.09;100.00;101387.19;10540354;28;20066;-58
2021/12/02 16:50:27;;;;;;;7.18;4.70;;;;;;;1.03;100.00;101386.38;10539886;28;20137;-58
2021/12/02 16:55:30;;;;;;;10.73;4.93;;;;;;;0.89;100.00;101386.47;10539917;28;20051;-55
2021/12/02 17:00:36;;;;;;;15.68;6.60;;;;;;;0.91;100.00;101389.91;10539492;28;20048;-56
2021/12/02 17:05:58;;;;;;;9.27;5.20;;;;;;;1.03;100.00;101407.84;10539242;28;20450;-53
2021/12/02 17:11:02;;;;;;;4.35;3.80;;;;;;;0.77;100.00;101407.19;10539356;28;20385;-56
2021/12/02 17:16:05;;;;;;;8.10;4.45;;;;;;;0.57;100.00;101392.69;10539233;28;20409;-55
2021/12/02 17:21:08;;;;;;;9.48;4.03;;;;;;;0.69;100.00;101418.41;10539171;28;20054;-56
2021/12/02 17:26:10;;;;;;;12.57;5.10;;;;;;;0.54;100.00;101433.97;10539751;28;20047;-56
2021/12/02 17:31:14;;;;;;;10.15;4.35;;;;;;;0.65;100.00;101451.94;10539327;28;20048;-52
2021/12/02 17:36:17;;;;;;;8.98;5.18;;;;;;;0.64;100.00;101465.69;10545696;28;20056;-56
2021/12/02 17:41:21;;;;;;;7.80;4.15;;;;;;;0.16;100.00;101453.03;10546464;28;20044;-56
2021/12/02 17:46:24;;;;;;;9.32;4.63;;;;;;;0.51;100.00;101470.06;10546852;28;20048;-53
2021/12/02 17:51:33;;;;;;;5.20;4.25;;;;;;;0.52;100.00;101489.78;10547099;28;20063;-56
2021/12/02 17:56:35;;;;;;;9.05;4.70;;;;;;;0.34;100.00;101483.03;10546567;28;20052;-53
2021/12/02 18:01:39;;;;;;;10.77;4.57;;;;;;;0.41;100.00;101494.16;10545863;28;20044;-55
2021/12/02 18:06:42;;;;;;;7.50;4.55;;;;;;;0.82;100.00;101511.97;10546135;28;20052;-54
2021/12/02 18:11:44;;;;;;;9.63;4.60;;;;;;;0.80;100.00;101511.13;10546431;28;20051;-56
2021/12/02 18:16:46;;;;;;;11.20;4.78;;;;;;;0.72;100.00;101511.19;10545454;28;20048;-55
2021/12/02 18:21:49;;;;;;;7.43;3.38;;;;;;;0.78;100.00;101522.34;10545191;28;20434;-58
2021/12/02 18:26:54;;;;;;;10.75;5.10;;;;;;;0.63;100.00;101523.25;10545629;28;20040;-55
2021/12/02 18:31:56;;;;;;;6.88;4.22;;;;;;;0.51;100.00;101529.34;10543628;28;20541;-57
2021/12/02 18:36:59;;;;;;;10.35;4.00;;;;;;;0.60;100.00;101546.47;10542259;28;20047;-54
2021/12/02 18:42:02;;;;;;;12.70;5.50;;;;;;;0.63;100.00;101543.88;10525090;28;20396;-56
2021/12/02 18:47:04;;;;;;;7.15;4.03;;;;;;;0.38;100.00;101535.38;10543388;28;20128;-57
2021/12/02 18:52:08;;;;;;;13.73;4.15;;;;;;;0.52;100.00;101551.63;10543916;28;20094;-53
2021/12/02 18:57:12;;;;;;;7.93;3.90;;;;;;;0.65;100.00;101561.03;10543607;28;20408;-56
2021/12/02 19:02:19;;;;;;;12.23;6.45;;;;;;;0.55;100.00;101546.47;10543575;28;20067;-56
2021/12/02 19:23:33;;;;;;;10.98;4.15;;;;;;;0.43;100.00;101573.16;10543282;28;20055;-53
2021/12/02 19:28:35;;;;;;;8.63;4.38;;;;;;;0.32;100.00;101560.31;10542728;28;20055;-55
2021/12/02 19:33:38;;;;;;;9.07;4.07;;;;;;;0.17;100.00;101565.50;10543531;28;20051;-57
2021/12/02 19:38:42;;;;;;;9.20;4.90;;;;;;;0.45;100.00;101579.16;10542081;28;20498;-57
2021/12/02 19:43:49;;;;;;;13.45;4.65;;;;;;;0.44;100.00;101584.28;10541916;28;20074;-56
2021/12/02 19:48:52;;;;;;;10.63;4.25;;;;;;;0.38;100.00;101585.19;10541929;28;20408;-56
2021/12/02 19:53:55;;;;;;;8.93;4.47;;;;;;;0.34;100.00;101586.91;10541707;28;20040;-56
2021/12/02 19:58:57;;;;;;;6.15;3.42;;;;;;;0.30;100.00;101592.06;10541886;28;20062;-56
2021/12/02 20:04:00;;;;;;;6.60;4.18;;;;;;;0.30;100.00;101607.53;10541055;28;20480;-57
2021/12/02 20:09:03;;;;;;;9.10;3.25;;;;;;;0.35;100.00;101619.56;10506754;28;20063;-55
2021/12/02 20:14:06;;;;;;;9.68;3.63;;;;;;;0.36;100.00;101620.41;10540598;28;20048;-56
2021/12/02 20:19:09;;;;;;;7.47;4.72;;;;;;;0.38;100.00;101630.72;10540299;28;20496;-59
2021/12/02 20:24:12;;;;;;;9.57;4.88;;;;;;;0.30;100.00;101638.44;10540873;28;20044;-56
2021/12/02 20:29:14;;;;;;;7.20;4.20;;;;;;;0.17;100.00;101635.03;10540202;28;20067;-56
2021/12/02 20:34:16;;;;;;;6.70;3.08;;;;;;;0.24;100.00;101634.16;10540370;28;20052;-55
2021/12/02 20:39:23;;;;;;;4.35;3.45;;;;;;;0.24;100.00;101647.03;10539971;28;20476;-54
2021/12/02 20:44:30;;;;;;;4.38;2.60;;;;;;;0.40;100.00;101654.75;10539902;28;20074;-57
2021/12/02 20:49:43;;;;;;;8.98;3.45;;;;;;;0.22;100.00;101646.19;10540066;28;20048;-57
2021/12/02 20:54:46;;;;;;;6.80;3.80;;;;;;;0.18;100.00;101654.75;10523617;28;20044;-54
2021/12/02 20:59:49;;;;;;;6.35;3.55;;;;;;;0.20;100.00;101689.09;10539654;28;20047;-55
2021/12/02 21:04:52;;;;;;;5.20;3.17;;;;;;;0.20;100.00;101678.78;10539100;28;20391;-54
2021/12/02 21:09:55;;;;;;;3.83;2.85;;;;;;;0.32;100.00;101708.84;10526400;28;20491;-56
2021/12/02 21:14:57;;;;;;;6.82;2.80;;;;;;;0.19;100.00;101689.97;10547665;28;20043;-56
2021/12/02 21:20:06;;;;;;;8.27;3.50;;;;;;;0.27;100.00;101688.25;10529996;28;20055;-56
2021/12/02 21:25:09;;;;;;;9.48;3.45;;;;;;;0.13;100.00;101674.50;10548319;28;20055;-56
2021/12/02 21:30:17;;;;;;;4.93;2.72;;;;;;;0.14;100.00;101682.25;10547156;28;20059;-55
2021/12/02 21:35:20;;;;;;;6.97;3.45;;;;;;;0.26;100.00;101681.38;10547427;28;20044;-53
2021/12/02 21:40:25;;;;;;;7.70;3.35;;;;;;;0.13;100.00;101667.63;10547190;28;20082;-57
2021/12/02 21:45:30;;;;;;;5.50;3.00;;;;;;;0.16;100.00;101675.34;10546976;28;20048;-55
2021/12/02 21:50:32;;;;;;;4.45;3.40;;;;;;;0.26;100.00;101668.50;10528982;28;20048;-56
2021/12/02 21:55:36;;;;;;;5.13;4.03;;;;;;;0.14;100.00;101669.38;10546387;28;20044;-56
2021/12/02 22:00:58;;;;;;;7.18;4.38;;;;;;;0.16;100.00;101688.25;10545807;28;20052;-55
2021/12/02 22:06:04;;;;;;;7.78;5.07;;;;;;;0.13;100.00;101693.38;10546356;28;20065;-55
2021/12/02 22:11:06;;;;;;;12.07;5.57;;;;;;;0.11;100.00;101694.25;10545853;28;20052;-53
2021/12/02 22:16:09;;;;;;;14.50;5.65;;;;;;;0.12;100.00;101693.41;10545871;28;20040;-56
2021/12/02 22:21:12;;;;;;;16.50;6.80;;;;;;;0.00;100.00;101689.13;10543900;28;20062;-54
2021/12/02 22:26:15;;;;;;;12.98;7.10;;;;;;;0.00;100.00;101689.13;10545529;28;20040;-55
2021/12/02 22:31:17;;;;;;;12.48;6.47;;;;;;;0.17;100.00;101684.81;10545016;28;20073;-55
2021/12/02 22:36:23;;;;;;;12.23;6.53;;;;;;;0.04;100.00;101698.53;10544818;28;20381;-58
2021/12/02 22:41:25;;;;;;;11.80;7.22;;;;;;;0.09;100.00;101694.25;10544234;28;20071;-54
2021/12/02 22:46:28;;;;;;;11.85;7.45;;;;;;;0.04;100.00;101690.81;10544170;28;20503;-58
2021/12/02 22:51:30;;;;;;;10.90;5.65;;;;;;;0.26;100.00;101743.19;10544035;28;20566;-56
2021/12/02 22:56:33;;;;;;;8.45;5.63;;;;;;;0.23;100.00;101717.44;10526084;28;20124;-57
2021/12/02 23:01:35;;;;;;;8.82;6.15;;;;;;;0.23;100.00;101725.16;10543739;28;20040;-55
2021/12/02 23:06:38;;;;;;;9.48;5.78;;;;;;;0.17;100.00;101712.31;10543764;28;20056;-57
2021/12/02 23:11:41;;;;;;;16.05;6.82;;;;;;;-0.04;100.00;101715.69;10543319;28;20079;-57
2021/12/02 23:16:44;;;;;;;18.83;8.20;;;;;;;0.01;100.00;101715.72;10543456;28;20044;-55
2021/12/02 23:21:47;;;;;;;14.35;7.93;;;;;;;0.07;100.00;101695.97;10542633;28;20411;-55
2021/12/02 23:26:51;;;;;;;11.73;8.07;;;;;;;0.05;100.00;101710.56;10543093;28;20051;-55
2021/12/02 23:31:53;;;;;;;11.30;7.43;;;;;;;0.18;100.00;101714.88;10542081;28;20043;-57
2021/12/02 23:36:56;;;;;;;20.48;8.85;;;;;;;0.02;100.00;101712.25;10543161;28;20051;-56
2021/12/02 23:41:58;;;;;;;15.55;9.05;;;;;;;-0.01;100.00;101716.56;10541982;28;20051;-56
2021/12/02 23:47:01;;;;;;;11.18;9.13;;;;;;;0.06;100.00;101708.84;10542078;28;20047;-58
2021/12/02 23:52:03;;;;;;;14.57;9.05;;;;;;;0.03;100.00;101693.41;10542295;28;20060;-56
2021/12/02 23:57:06;;;;;;;10.27;8.50;;;;;;;0.05;100.00;101686.53;10523774;28;20047;-53
